Milton, West Virginia
Current Conditions -  °F | °C
As of 4:51 PM on Monday 24 Nov 2014 (Local Time) from KHTS Reporting Station
Clear Clear  
Wind Chill: 60°   Ceiling: Unl
Heat Index: 60°   Visibility: 10mi
Dew Point: 41°   Wind: 12mph
Humidity: 49%   Direction: 260°W
Pressure: 29.7"   Gusts: 21mph
Location:  38.43°N, 82.13°W
Report Text: KHTS 242151Z 26010G18KT 10SM CLR 16/05 A2970 RMK AO2 SLP053 T01560050
Loading
Personal Weather Stations






























Interactive Weather Map New forecast layout! Learn more

10-Day Weather Forecast

Advertisements
Track Severe Weather on mobile